sensor_id;sensor_type;location;lat;lon;timestamp;pressure;altitude;pressure_sealevel;temperature;humidity
36138;BME280;67787;50.074;21.904;2024-03-25T11:08:38;97890.30;;;7.78;66.87
36138;BME280;67787;50.074;21.904;2024-03-25T11:11:53;97888.29;;;7.97;66.84
36138;BME280;67787;50.074;21.904;2024-03-25T11:15:07;97886.19;;;8.12;66.70
36138;BME280;67787;50.074;21.904;2024-03-25T11:19:00;97879.63;;;8.30;66.83
36138;BME280;67787;50.074;21.904;2024-03-25T11:25:54;97870.44;;;8.67;66.77
36138;BME280;67787;50.074;21.904;2024-03-25T11:29:04;97871.13;;;8.69;66.59
36138;BME280;67787;50.074;21.904;2024-03-25T11:32:54;97870.07;;;8.69;66.56
36138;BME280;67787;50.074;21.904;2024-03-25T11:36:24;97866.00;;;8.71;66.39
36138;BME280;67787;50.074;21.904;2024-03-25T11:39:38;97865.05;;;8.76;66.64
36138;BME280;67787;50.074;21.904;2024-03-25T11:43:10;97862.38;;;8.78;66.44
36138;BME280;67787;50.074;21.904;2024-03-25T11:47:22;97862.80;;;8.82;66.55
36138;BME280;67787;50.074;21.904;2024-03-25T11:53:33;97857.95;;;8.89;66.20
36138;BME280;67787;50.074;21.904;2024-03-25T11:56:33;97853.16;;;8.89;66.00
36138;BME280;67787;50.074;21.904;2024-03-25T11:59:20;97848.21;;;8.98;66.25
36138;BME280;67787;50.074;21.904;2024-03-25T12:02:56;97845.64;;;9.16;66.46
36138;BME280;67787;50.074;21.904;2024-03-25T12:14:12;97852.83;;;9.35;65.92
36138;BME280;67787;50.074;21.904;2024-03-25T12:17:32;97856.92;;;9.28;65.72
36138;BME280;67787;50.074;21.904;2024-03-25T12:20:45;97856.93;;;9.18;65.47
36138;BME280;67787;50.074;21.904;2024-03-25T12:24:04;97859.32;;;9.08;65.58
36138;BME280;67787;50.074;21.904;2024-03-25T12:34:47;97862.56;;;8.89;65.62
36138;BME280;67787;50.074;21.904;2024-03-25T12:38:09;97858.48;;;8.93;65.59
36138;BME280;67787;50.074;21.904;2024-03-25T12:41:21;97848.73;;;9.00;65.60
36138;BME280;67787;50.074;21.904;2024-03-25T12:45:22;97850.57;;;9.12;65.64
36138;BME280;67787;50.074;21.904;2024-03-25T12:49:09;97851.02;;;9.15;65.35
36138;BME280;67787;50.074;21.904;2024-03-25T12:52:51;97851.23;;;9.10;65.23
36138;BME280;67787;50.074;21.904;2024-03-25T12:56:26;97852.30;;;9.06;65.11
36138;BME280;67787;50.074;21.904;2024-03-25T12:59:30;97851.39;;;9.00;65.01
36138;BME280;67787;50.074;21.904;2024-03-25T13:14:35;97842.08;;;8.76;65.03
36138;BME280;67787;50.074;21.904;2024-03-25T13:17:41;97838.06;;;8.75;65.13
36138;BME280;67787;50.074;21.904;2024-03-25T13:21:26;97841.58;;;8.80;65.04
36138;BME280;67787;50.074;21.904;2024-03-25T13:25:13;97846.95;;;8.90;65.01
36138;BME280;67787;50.074;21.904;2024-03-25T13:28:49;97847.31;;;9.00;65.10
36138;BME280;67787;50.074;21.904;2024-03-25T13:32:49;97852.94;;;9.09;65.00
36138;BME280;67787;50.074;21.904;2024-03-25T13:37:25;97853.03;;;9.20;65.06
36138;BME280;67787;50.074;21.904;2024-03-25T13:41:02;97859.05;;;9.24;64.99
36138;BME280;67787;50.074;21.904;2024-03-25T13:44:24;97856.08;;;9.20;64.82
36138;BME280;67787;50.074;21.904;2024-03-25T13:48:00;97858.70;;;9.26;64.88
36138;BME280;67787;50.074;21.904;2024-03-25T13:51:11;97858.32;;;9.24;64.70
36138;BME280;67787;50.074;21.904;2024-03-25T13:54:43;97864.39;;;9.17;64.59
36138;BME280;67787;50.074;21.904;2024-03-25T13:57:55;97866.78;;;9.08;64.53
36138;BME280;67787;50.074;21.904;2024-03-25T14:01:17;97871.00;;;9.00;64.47
36138;BME280;67787;50.074;21.904;2024-03-25T14:04:07;97876.17;;;8.95;64.41
36138;BME280;67787;50.074;21.904;2024-03-25T14:07:30;97887.02;;;8.88;64.37
36138;BME280;67787;50.074;21.904;2024-03-25T14:11:09;97915.19;;;8.70;63.88
36138;BME280;67787;50.074;21.904;2024-03-25T14:14:23;97915.63;;;8.17;63.34
36138;BME280;67787;50.074;21.904;2024-03-25T14:17:07;97927.08;;;7.68;63.52
36138;BME280;67787;50.074;21.904;2024-03-25T14:19:34;97933.31;;;7.29;63.44
36138;BME280;67787;50.074;21.904;2024-03-25T14:22:31;97939.31;;;6.87;63.55
36138;BME280;67787;50.074;21.904;2024-03-25T14:35:45;97938.52;;;6.90;63.95
36138;BME280;67787;50.074;21.904;2024-03-25T14:38:28;97935.99;;;6.87;64.50
36138;BME280;67787;50.074;21.904;2024-03-25T14:40:58;97936.94;;;6.86;64.53
36138;BME280;67787;50.074;21.904;2024-03-25T14:43:26;97933.09;;;6.85;64.84
36138;BME280;67787;50.074;21.904;2024-03-25T14:45:56;97929.88;;;6.88;64.87
36138;BME280;67787;50.074;21.904;2024-03-25T14:48:24;97926.55;;;6.92;64.91
36138;BME280;67787;50.074;21.904;2024-03-25T14:50:52;97924.86;;;6.94;65.08
36138;BME280;67787;50.074;21.904;2024-03-25T14:53:19;97927.94;;;6.95;65.08
36138;BME280;67787;50.074;21.904;2024-03-25T14:55:47;97934.71;;;6.94;64.98
36138;BME280;67787;50.074;21.904;2024-03-25T14:58:14;97939.98;;;6.94;65.09
36138;BME280;67787;50.074;21.904;2024-03-25T15:00:42;97948.26;;;6.94;65.10
36138;BME280;67787;50.074;21.904;2024-03-25T15:03:10;97958.11;;;6.93;65.03
36138;BME280;67787;50.074;21.904;2024-03-25T15:05:38;97965.94;;;6.89;64.95
36138;BME280;67787;50.074;21.904;2024-03-25T15:08:06;97979.98;;;6.82;64.95
36138;BME280;67787;50.074;21.904;2024-03-25T15:10:34;97985.00;;;6.74;64.86
36138;BME280;67787;50.074;21.904;2024-03-25T15:13:02;97987.92;;;6.66;65.12
36138;BME280;67787;50.074;21.904;2024-03-25T15:15:29;97983.80;;;6.59;65.27
36138;BME280;67787;50.074;21.904;2024-03-25T15:18:01;97979.80;;;6.56;65.24
36138;BME280;67787;50.074;21.904;2024-03-25T15:20:29;97976.16;;;6.60;65.59
36138;BME280;67787;50.074;21.904;2024-03-25T15:22:57;97973.05;;;6.64;65.52
36138;BME280;67787;50.074;21.904;2024-03-25T15:25:25;97974.18;;;6.70;65.46
36138;BME280;67787;50.074;21.904;2024-03-25T15:27:53;97969.53;;;6.76;65.57
36138;BME280;67787;50.074;21.904;2024-03-25T15:30:20;97970.05;;;6.81;65.57
36138;BME280;67787;50.074;21.904;2024-03-25T15:32:48;97970.62;;;6.88;65.56
36138;BME280;67787;50.074;21.904;2024-03-25T15:35:16;97970.84;;;6.92;65.65
36138;BME280;67787;50.074;21.904;2024-03-25T15:37:44;97965.84;;;6.91;65.69
36138;BME280;67787;50.074;21.904;2024-03-25T15:40:11;97965.73;;;6.90;65.82
36138;BME280;67787;50.074;21.904;2024-03-25T15:42:43;97961.19;;;6.89;65.63
36138;BME280;67787;50.074;21.904;2024-03-25T15:45:11;97967.92;;;6.89;65.53
36138;BME280;67787;50.074;21.904;2024-03-25T15:47:38;97971.59;;;6.87;65.83
36138;BME280;67787;50.074;21.904;2024-03-25T15:50:06;97971.34;;;6.85;65.60
36138;BME280;67787;50.074;21.904;2024-03-25T15:52:34;97968.84;;;6.83;65.68
36138;BME280;67787;50.074;21.904;2024-03-25T15:55:11;97973.11;;;6.80;65.90
36138;BME280;67787;50.074;21.904;2024-03-25T15:57:38;97975.69;;;6.76;65.97
36138;BME280;67787;50.074;21.904;2024-03-25T16:00:07;97978.70;;;6.76;65.99
36138;BME280;67787;50.074;21.904;2024-03-25T16:02:36;97986.40;;;6.74;65.97
36138;BME280;67787;50.074;21.904;2024-03-25T16:05:05;97983.14;;;6.71;65.94
36138;BME280;67787;50.074;21.904;2024-03-25T16:07:34;97986.77;;;6.65;65.79
36138;BME280;67787;50.074;21.904;2024-03-25T16:10:02;97986.90;;;6.58;65.90
36138;BME280;67787;50.074;21.904;2024-03-25T16:12:30;97985.35;;;6.50;66.14
36138;BME280;67787;50.074;21.904;2024-03-25T16:14:59;97989.09;;;6.45;66.09
36138;BME280;67787;50.074;21.904;2024-03-25T16:17:27;97995.40;;;6.38;65.95
36138;BME280;67787;50.074;21.904;2024-03-25T16:19:55;97993.23;;;6.31;66.04
36138;BME280;67787;50.074;21.904;2024-03-25T16:22:22;97995.30;;;6.27;66.44
36138;BME280;67787;50.074;21.904;2024-03-25T16:24:51;97996.20;;;6.27;66.47
36138;BME280;67787;50.074;21.904;2024-03-25T16:27:19;97999.08;;;6.26;66.50
36138;BME280;67787;50.074;21.904;2024-03-25T16:29:46;98000.65;;;6.26;66.78
36138;BME280;67787;50.074;21.904;2024-03-25T16:32:14;98004.77;;;6.25;66.56
36138;BME280;67787;50.074;21.904;2024-03-25T16:34:42;98001.92;;;6.25;66.75
36138;BME280;67787;50.074;21.904;2024-03-25T16:37:09;98004.71;;;6.26;66.80
36138;BME280;67787;50.074;21.904;2024-03-25T16:39:37;98006.75;;;6.24;66.71
36138;BME280;67787;50.074;21.904;2024-03-25T16:42:06;98012.84;;;6.20;66.73
36138;BME280;67787;50.074;21.904;2024-03-25T16:44:34;98012.35;;;6.15;66.35
36138;BME280;67787;50.074;21.904;2024-03-25T16:47:02;98011.52;;;6.09;66.73
36138;BME280;67787;50.074;21.904;2024-03-25T16:49:29;98011.08;;;6.06;66.74
36138;BME280;67787;50.074;21.904;2024-03-25T16:51:57;98011.60;;;6.03;66.82
36138;BME280;67787;50.074;21.904;2024-03-25T16:54:26;98014.88;;;6.02;67.02
36138;BME280;67787;50.074;21.904;2024-03-25T16:56:55;98019.27;;;6.02;66.87
36138;BME280;67787;50.074;21.904;2024-03-25T16:59:23;98021.73;;;5.99;67.13
36138;BME280;67787;50.074;21.904;2024-03-25T17:01:51;98021.34;;;5.96;66.97
36138;BME280;67787;50.074;21.904;2024-03-25T17:04:22;98025.17;;;5.92;66.79
36138;BME280;67787;50.074;21.904;2024-03-25T17:06:51;98022.71;;;5.85;66.94
36138;BME280;67787;50.074;21.904;2024-03-25T17:09:18;98026.26;;;5.82;66.96
36138;BME280;67787;50.074;21.904;2024-03-25T17:11:46;98032.63;;;5.81;66.88
36138;BME280;67787;50.074;21.904;2024-03-25T17:14:15;98034.58;;;5.78;66.74
36138;BME280;67787;50.074;21.904;2024-03-25T17:16:42;98034.95;;;5.73;67.00
36138;BME280;67787;50.074;21.904;2024-03-25T17:19:11;98040.11;;;5.69;66.84
36138;BME280;67787;50.074;21.904;2024-03-25T17:21:38;98043.71;;;5.66;66.89
36138;BME280;67787;50.074;21.904;2024-03-25T17:24:06;98047.20;;;5.61;66.78
36138;BME280;67787;50.074;21.904;2024-03-25T17:26:34;98050.84;;;5.57;66.86
36138;BME280;67787;50.074;21.904;2024-03-25T17:29:01;98051.13;;;5.52;66.95
36138;BME280;67787;50.074;21.904;2024-03-25T17:31:29;98056.52;;;5.48;67.01
36138;BME280;67787;50.074;21.904;2024-03-25T17:33:57;98060.37;;;5.46;67.12
36138;BME280;67787;50.074;21.904;2024-03-25T17:36:24;98068.49;;;5.43;66.96
36138;BME280;67787;50.074;21.904;2024-03-25T17:38:52;98066.65;;;5.39;67.09
36138;BME280;67787;50.074;21.904;2024-03-25T17:41:19;98070.21;;;5.38;67.09
36138;BME280;67787;50.074;21.904;2024-03-25T17:43:47;98073.77;;;5.37;67.02
36138;BME280;67787;50.074;21.904;2024-03-25T17:46:14;98072.93;;;5.36;67.29
36138;BME280;67787;50.074;21.904;2024-03-25T17:48:42;98074.87;;;5.37;67.14
36138;BME280;67787;50.074;21.904;2024-03-25T17:51:11;98070.76;;;5.35;67.18
36138;BME280;67787;50.074;21.904;2024-03-25T17:53:38;98071.52;;;5.34;67.21
36138;BME280;67787;50.074;21.904;2024-03-25T17:56:06;98072.23;;;5.34;67.38
36138;BME280;67787;50.074;21.904;2024-03-25T17:58:33;98073.98;;;5.34;67.33
36138;BME280;67787;50.074;21.904;2024-03-25T18:01:01;98077.15;;;5.34;67.27
36138;BME280;67787;50.074;21.904;2024-03-25T18:03:29;98077.82;;;5.34;67.33
36138;BME280;67787;50.074;21.904;2024-03-25T18:05:56;98077.66;;;5.34;67.29
36138;BME280;67787;50.074;21.904;2024-03-25T18:08:26;98076.85;;;5.33;67.51
36138;BME280;67787;50.074;21.904;2024-03-25T18:10:54;98078.36;;;5.31;67.38
36138;BME280;67787;50.074;21.904;2024-03-25T18:13:21;98078.19;;;5.29;67.50
36138;BME280;67787;50.074;21.904;2024-03-25T18:15:51;98081.38;;;5.26;67.35
36138;BME280;67787;50.074;21.904;2024-03-25T18:18:19;98086.55;;;5.22;67.33
36138;BME280;67787;50.074;21.904;2024-03-25T18:20:47;98087.14;;;5.18;67.17
36138;BME280;67787;50.074;21.904;2024-03-25T18:23:15;98085.45;;;5.15;67.33
36138;BME280;67787;50.074;21.904;2024-03-25T18:25:44;98088.36;;;5.11;67.43
36138;BME280;67787;50.074;21.904;2024-03-25T18:28:12;98088.56;;;5.08;67.56
36138;BME280;67787;50.074;21.904;2024-03-25T18:30:40;98091.73;;;5.04;67.67
36138;BME280;67787;50.074;21.904;2024-03-25T18:33:07;98095.47;;;5.01;67.41
36138;BME280;67787;50.074;21.904;2024-03-25T18:38:03;98098.20;;;4.91;67.38
36138;BME280;67787;50.074;21.904;2024-03-25T18:40:31;98100.41;;;4.87;67.33
36138;BME280;67787;50.074;21.904;2024-03-25T18:42:59;98102.99;;;4.83;67.22
36138;BME280;67787;50.074;21.904;2024-03-25T18:45:27;98106.09;;;4.81;67.59
36138;BME280;67787;50.074;21.904;2024-03-25T18:47:54;98109.53;;;4.79;67.65
36138;BME280;67787;50.074;21.904;2024-03-25T18:50:22;98110.49;;;4.78;67.42
36138;BME280;67787;50.074;21.904;2024-03-25T18:52:49;98119.19;;;4.76;67.53
36138;BME280;67787;50.074;21.904;2024-03-25T18:55:17;98121.77;;;4.74;67.61
36138;BME280;67787;50.074;21.904;2024-03-25T18:57:44;98127.86;;;4.73;67.66
36138;BME280;67787;50.074;21.904;2024-03-25T19:00:12;98128.42;;;4.70;67.71
36138;BME280;67787;50.074;21.904;2024-03-25T19:02:40;98129.13;;;4.67;67.74
36138;BME280;67787;50.074;21.904;2024-03-25T19:05:08;98130.52;;;4.64;67.62
36138;BME280;67787;50.074;21.904;2024-03-25T19:07:36;98132.93;;;4.62;67.67
36138;BME280;67787;50.074;21.904;2024-03-25T19:10:04;98135.45;;;4.61;67.85
36138;BME280;67787;50.074;21.904;2024-03-25T19:12:32;98139.10;;;4.61;67.95
36138;BME280;67787;50.074;21.904;2024-03-25T19:15:00;98139.16;;;4.58;67.92
36138;BME280;67787;50.074;21.904;2024-03-25T19:17:27;98138.54;;;4.56;67.92
36138;BME280;67787;50.074;21.904;2024-03-25T19:19:55;98140.76;;;4.54;67.84
36138;BME280;67787;50.074;21.904;2024-03-25T19:22:22;98139.14;;;4.52;67.92
36138;BME280;67787;50.074;21.904;2024-03-25T19:24:50;98139.04;;;4.48;67.75
36138;BME280;67787;50.074;21.904;2024-03-25T19:27:18;98142.92;;;4.45;68.06
36138;BME280;67787;50.074;21.904;2024-03-25T19:29:46;98145.20;;;4.42;67.93
36138;BME280;67787;50.074;21.904;2024-03-25T19:32:14;98150.02;;;4.41;68.13
36138;BME280;67787;50.074;21.904;2024-03-25T19:34:41;98154.68;;;4.40;67.96
36138;BME280;67787;50.074;21.904;2024-03-25T19:37:09;98158.55;;;4.36;67.99
36138;BME280;67787;50.074;21.904;2024-03-25T19:39:37;98161.02;;;4.36;68.01
36138;BME280;67787;50.074;21.904;2024-03-25T19:42:06;98164.54;;;4.33;68.11
36138;BME280;67787;50.074;21.904;2024-03-25T19:44:34;98165.00;;;4.31;67.99
36138;BME280;67787;50.074;21.904;2024-03-25T19:47:02;98166.91;;;4.29;68.13
36138;BME280;67787;50.074;21.904;2024-03-25T19:49:30;98166.34;;;4.27;68.15
36138;BME280;67787;50.074;21.904;2024-03-25T19:51:58;98168.86;;;4.25;68.04
36138;BME280;67787;50.074;21.904;2024-03-25T19:54:26;98171.97;;;4.24;68.10
36138;BME280;67787;50.074;21.904;2024-03-25T19:56:53;98170.20;;;4.24;68.06
36138;BME280;67787;50.074;21.904;2024-03-25T19:59:21;98172.48;;;4.26;68.19
36138;BME280;67787;50.074;21.904;2024-03-25T20:01:48;98173.31;;;4.30;68.17
36138;BME280;67787;50.074;21.904;2024-03-25T20:04:17;98180.39;;;4.35;68.62
36138;BME280;67787;50.074;21.904;2024-03-25T20:06:44;98184.17;;;4.39;68.55
36138;BME280;67787;50.074;21.904;2024-03-25T20:09:12;98187.50;;;4.42;68.41
36138;BME280;67787;50.074;21.904;2024-03-25T20:11:40;98186.65;;;4.45;68.44
36138;BME280;67787;50.074;21.904;2024-03-25T20:14:07;98190.48;;;4.45;68.45
36138;BME280;67787;50.074;21.904;2024-03-25T20:16:36;98190.15;;;4.45;68.36
36138;BME280;67787;50.074;21.904;2024-03-25T20:19:04;98191.44;;;4.44;68.32
36138;BME280;67787;50.074;21.904;2024-03-25T20:21:31;98191.11;;;4.41;68.42
36138;BME280;67787;50.074;21.904;2024-03-25T20:23:59;98194.02;;;4.39;68.61
36138;BME280;67787;50.074;21.904;2024-03-25T20:26:27;98193.77;;;4.37;68.54
36138;BME280;67787;50.074;21.904;2024-03-25T20:28:54;98194.91;;;4.36;68.59
36138;BME280;67787;50.074;21.904;2024-03-25T20:31:22;98198.44;;;4.36;68.43
36138;BME280;67787;50.074;21.904;2024-03-25T20:33:49;98198.09;;;4.33;68.52
36138;BME280;67787;50.074;21.904;2024-03-25T20:36:19;98198.66;;;4.29;68.44
36138;BME280;67787;50.074;21.904;2024-03-25T20:38:47;98201.46;;;4.24;68.39
36138;BME280;67787;50.074;21.904;2024-03-25T20:41:14;98202.09;;;4.19;68.57
36138;BME280;67787;50.074;21.904;2024-03-25T20:43:46;98203.73;;;4.15;68.53
36138;BME280;67787;50.074;21.904;2024-03-25T20:46:15;98206.17;;;4.12;68.48
36138;BME280;67787;50.074;21.904;2024-03-25T20:48:43;98206.38;;;4.09;68.54
36138;BME280;67787;50.074;21.904;2024-03-25T20:51:11;98204.36;;;4.07;68.68
36138;BME280;67787;50.074;21.904;2024-03-25T20:53:38;98202.42;;;4.04;68.79
36138;BME280;67787;50.074;21.904;2024-03-25T20:56:06;98204.38;;;4.01;68.63
36138;BME280;67787;50.074;21.904;2024-03-25T20:58:33;98210.55;;;3.97;68.64
36138;BME280;67787;50.074;21.904;2024-03-25T21:01:02;98211.46;;;3.94;68.63
36138;BME280;67787;50.074;21.904;2024-03-25T21:03:30;98210.29;;;3.90;68.68
36138;BME280;67787;50.074;21.904;2024-03-25T21:05:58;98210.40;;;3.88;68.70
36138;BME280;67787;50.074;21.904;2024-03-25T21:08:27;98211.13;;;3.87;68.75
36138;BME280;67787;50.074;21.904;2024-03-25T21:10:55;98214.90;;;3.86;68.74
36138;BME280;67787;50.074;21.904;2024-03-25T21:13:23;98215.92;;;3.84;68.57
36138;BME280;67787;50.074;21.904;2024-03-25T21:15:51;98215.54;;;3.81;68.75
36138;BME280;67787;50.074;21.904;2024-03-25T21:18:18;98214.23;;;3.77;68.58
36138;BME280;67787;50.074;21.904;2024-03-25T21:20:46;98217.48;;;3.75;68.57
36138;BME280;67787;50.074;21.904;2024-03-25T21:23:17;98215.05;;;3.71;68.61
36138;BME280;67787;50.074;21.904;2024-03-25T21:25:44;98216.52;;;3.67;68.70
36138;BME280;67787;50.074;21.904;2024-03-25T21:28:12;98214.03;;;3.65;68.61
36138;BME280;67787;50.074;21.904;2024-03-25T21:30:40;98220.30;;;3.62;68.77
36138;BME280;67787;50.074;21.904;2024-03-25T21:33:07;98223.95;;;3.60;68.79
36138;BME280;67787;50.074;21.904;2024-03-25T21:35:35;98220.36;;;3.58;68.92
36138;BME280;67787;50.074;21.904;2024-03-25T21:38:03;98223.79;;;3.56;68.70
36138;BME280;67787;50.074;21.904;2024-03-25T21:40:31;98221.77;;;3.55;68.90
36138;BME280;67787;50.074;21.904;2024-03-25T21:42:59;98225.11;;;3.54;69.01
36138;BME280;67787;50.074;21.904;2024-03-25T21:45:26;98224.30;;;3.54;68.87
36138;BME280;67787;50.074;21.904;2024-03-25T21:47:54;98226.39;;;3.51;68.69
36138;BME280;67787;50.074;21.904;2024-03-25T21:50:21;98231.58;;;3.49;68.97
36138;BME280;67787;50.074;21.904;2024-03-25T21:52:49;98237.77;;;3.48;69.00
36138;BME280;67787;50.074;21.904;2024-03-25T21:55:16;98239.67;;;3.48;68.97
36138;BME280;67787;50.074;21.904;2024-03-25T21:57:44;98240.71;;;3.46;68.86
36138;BME280;67787;50.074;21.904;2024-03-25T22:00:15;98241.39;;;3.46;69.02
36138;BME280;67787;50.074;21.904;2024-03-25T22:02:43;98239.09;;;3.47;69.06
36138;BME280;67787;50.074;21.904;2024-03-25T22:05:10;98239.92;;;3.44;68.96
36138;BME280;67787;50.074;21.904;2024-03-25T22:07:38;98243.55;;;3.42;69.01
36138;BME280;67787;50.074;21.904;2024-03-25T22:10:06;98249.79;;;3.40;69.13
36138;BME280;67787;50.074;21.904;2024-03-25T22:12:34;98248.72;;;3.37;68.92
36138;BME280;67787;50.074;21.904;2024-03-25T22:15:02;98250.11;;;3.34;69.44
36138;BME280;67787;50.074;21.904;2024-03-25T22:17:30;98249.55;;;3.38;69.44
36138;BME280;67787;50.074;21.904;2024-03-25T22:19:58;98249.80;;;3.39;69.36
36138;BME280;67787;50.074;21.904;2024-03-25T22:22:25;98253.09;;;3.40;69.23
36138;BME280;67787;50.074;21.904;2024-03-25T22:24:53;98253.32;;;3.43;69.70
36138;BME280;67787;50.074;21.904;2024-03-25T22:27:20;98253.72;;;3.45;69.56
36138;BME280;67787;50.074;21.904;2024-03-25T22:29:48;98255.26;;;3.46;69.63
36138;BME280;67787;50.074;21.904;2024-03-25T22:32:16;98257.16;;;3.46;69.21
36138;BME280;67787;50.074;21.904;2024-03-25T22:34:44;98254.65;;;3.47;69.40
36138;BME280;67787;50.074;21.904;2024-03-25T22:37:12;98258.17;;;3.47;69.40
36138;BME280;67787;50.074;21.904;2024-03-25T22:39:44;98260.61;;;3.47;69.60
36138;BME280;67787;50.074;21.904;2024-03-25T22:42:12;98256.65;;;3.46;69.36
36138;BME280;67787;50.074;21.904;2024-03-25T22:44:40;98258.15;;;3.44;69.55
36138;BME280;67787;50.074;21.904;2024-03-25T22:47:08;98263.67;;;3.46;69.48
36138;BME280;67787;50.074;21.904;2024-03-25T22:49:36;98264.27;;;3.44;69.30
36138;BME280;67787;50.074;21.904;2024-03-25T22:52:04;98271.95;;;3.41;69.33
36138;BME280;67787;50.074;21.904;2024-03-25T22:54:34;98268.05;;;3.36;69.47
36138;BME280;67787;50.074;21.904;2024-03-25T22:57:02;98270.58;;;3.29;69.46
36138;BME280;67787;50.074;21.904;2024-03-25T22:59:30;98272.89;;;3.18;69.37
36138;BME280;67787;50.074;21.904;2024-03-25T23:01:57;98272.88;;;3.09;69.29
36138;BME280;67787;50.074;21.904;2024-03-25T23:04:25;98283.30;;;3.01;69.47
36138;BME280;67787;50.074;21.904;2024-03-25T23:06:52;98286.44;;;2.94;69.21
36138;BME280;67787;50.074;21.904;2024-03-25T23:09:20;98285.48;;;2.89;69.23
36138;BME280;67787;50.074;21.904;2024-03-25T23:11:47;98285.38;;;2.81;69.23
36138;BME280;67787;50.074;21.904;2024-03-25T23:14:15;98287.21;;;2.77;69.39
36138;BME280;67787;50.074;21.904;2024-03-25T23:16:43;98292.21;;;2.71;69.38
36138;BME280;67787;50.074;21.904;2024-03-25T23:19:10;98294.61;;;2.66;68.81
36138;BME280;67787;50.074;21.904;2024-03-25T23:21:38;98298.91;;;2.60;69.32
36138;BME280;67787;50.074;21.904;2024-03-25T23:24:06;98297.17;;;2.57;69.12
36138;BME280;67787;50.074;21.904;2024-03-25T23:26:34;98299.73;;;2.55;69.42
36138;BME280;67787;50.074;21.904;2024-03-25T23:29:01;98295.17;;;2.51;69.40
36138;BME280;67787;50.074;21.904;2024-03-25T23:31:29;98292.27;;;2.50;69.33
36138;BME280;67787;50.074;21.904;2024-03-25T23:33:56;98297.07;;;2.51;69.52
36138;BME280;67787;50.074;21.904;2024-03-25T23:36:24;98298.85;;;2.51;69.53
36138;BME280;67787;50.074;21.904;2024-03-25T23:38:51;98302.70;;;2.51;69.45
36138;BME280;67787;50.074;21.904;2024-03-25T23:41:19;98304.02;;;2.49;69.53
36138;BME280;67787;50.074;21.904;2024-03-25T23:43:46;98306.96;;;2.47;69.21
36138;BME280;67787;50.074;21.904;2024-03-25T23:46:14;98308.35;;;2.47;69.53
36138;BME280;67787;50.074;21.904;2024-03-25T23:48:41;98309.97;;;2.46;69.73
36138;BME280;67787;50.074;21.904;2024-03-25T23:51:09;98310.14;;;2.43;69.76
36138;BME280;67787;50.074;21.904;2024-03-25T23:53:37;98312.34;;;2.41;69.47
36138;BME280;67787;50.074;21.904;2024-03-25T23:56:04;98312.05;;;2.40;69.79
36138;BME280;67787;50.074;21.904;2024-03-25T23:58:32;98314.50;;;2.40;69.61
